Aeroporto :
LOGIN :

Iscrizione | Disclaimer

   EN    FR    IT 

 










Sommario :    VFR   VFR Marginale   IFR   IFR Intensivo   IFR Molto Intensivo
Visibilità : 
Base nubi : 
>= 8 km
>= 3000ft
5 / 8 km
1000 / 3000 ft
1500m / 5 km
500 / 1000 ft
800 / 1500m
200 / 500 ft
< 800m
< 200 ft
Simboli :   Temporali  Nebbia  Neve Forte  Precipitazioni Forti  Vento > 20 kt
SIGMETs :   Varie  Temporali  Ghiacco  Turbolenza  Onda orograficha  Ceneri Vulcaniche






- Altitudine del aeroporto : 247 ft
- Codice IATA : BLL


EKBI - Billund

ULTIMO METAR :
  • 191120Z AUTO 18010KT 150V210 9999 OVC013/// 12/10 Q1003

METARs OBSOLETI :
  • 191050Z AUTO 18010KT 140V220 9999 OVC014/// 12/09 Q1003
  • 191020Z AUTO 18011KT 150V220 9999 BKN013/// 11/09 Q1003
  • 190950Z AUTO 17008KT 130V200 9999 OVC012/// 11/09 Q1003
  • 190920Z AUTO 17008KT 140V200 9999 OVC011/// 10/09 Q1003
  • 190850Z AUTO 17008KT 140V200 9999 BKN019/// 10/09 Q1003

TAF TAF EKBI
Valido dal 19 a 12 ore il 20 a 12 ore UTC


191100Z 1912/2012 18010KT 9999 BKN018
TEMPO 1912/2012 2500 SHRA BKN008 SCT020CB



MetMap, La meteo Aeronautica in un colpo d'occhio ! - Copyright ORBIFLY Dicembre 2007 - Disclaimer

ORBIFLY MET'MAP TEAM :

Programmazione e sviluppo : Alexandra Zaïnal
Concezione e sviluppo : Baudouin d'Aumeries
Co-Programmazione e sviluppo : Marc-Olivier Méhu
Supporto tecnico e logistico : Manuel Goepfert
Aiuto per la traduzione : Arnaldo La Scala

Contatto : metmap@orbifly.com




FONTI E CREDITI :

   NOAA